KBVO/BVO METAR and TAF weather

Enter ICAO airport designator
Station Type Date Time Source
KBVO METAR 2024/02/26 17:53 UTC NOAA

KBVO 261753Z AUTO 19004KT 10SM CLR 22/04 A2969 RMK AO2 SLP048 T02170044 10222 20000 58018


Station Type Date Time Source
KBVO Decoded METAR 2024/02/26 17:53 UTC NOAA

BARTLESVILLE MUNICIPAL AIRPORT , OK, United States (KBVO) 36-46N 96-01W 210M
Feb 26, 2024 - 12:53 PM EST / 2024.02.26 1753 UTC
Wind: from the S (190 degrees) at 5 MPH (4 KT):0
Visibility: 10 mile(s):0
Sky conditions: clear
Temperature: 71.1 F (21.7 C)
Dew Point: 39.9 F (4.4 C)
Relative Humidity: 32%
Pressure (altimeter): 29.69 in. Hg (1005 hPa)
Pressure tendency: 0.05 inches (1.8 hPa) lower than three hours ago
ob: KBVO 261753Z AUTO 19004KT 10SM CLR 22/04 A2969 RMK AO2 SLP048 T02170044 10222 20000 58018
cycle: 18

Station Type Date Time Source
KBVO TAF 2024/02/26 18:30 UTC NOAA